Airfield :
LOGIN :

Register | Disclaimer

   EN    FR    IT 

 










Legend :    VFR   Marginal VFR   IFR   Intensive IFR   Very Intensive IFR
Visi :
Ceiling :
>= 8 km
>= 3000ft
5 to 8 km
1000 to 3000 ft
1500m to 5 km
500 to 1000 ft
800 to 1500m
200 to 500 ft
< 800m
< 200 ft
Symbols :   Thunderstorms  Fog  Heavy snow  Heavy precipitations  Wind > 20 kt
SIGMETs :     Misc.  Thunderstorms  Icing  Turbulence  Mountain Waves  Volcanic Ashes






- Airport Elevation : 154 ft
- IATA code : SZZ


EPSC - Szczecin Goleniow

CURRENT METAR :
  • 200130Z 02010KT 8000 -RA SCT005 OVC006 04/03 Q1004

EXPIRED METARs :
  • 200100Z 01005KT 320V030 9999 -RA BKN005 05/04 Q1004
  • 200030Z 36006KT 9999 -RA BKN005 05/04 Q1003
  • 200000Z 01006KT 9999 SCT005 BKN006 05/04 Q1003
  • 192330Z 02008KT 9999 BKN005 05/04 Q1003
  • 192300Z 01006KT 9999 SCT003 OVC005 05/05 Q1002
  • 192230Z 02004KT 350V050 9999 BKN003 05/05 Q1002
  • 192200Z 03004KT 9999 BKN004 05/05 Q1002
  • 192130Z 02004KT 340V040 9999 FEW004 BKN019 05/05 Q1002
  • 192100Z 04003KT 9999 SCT005 BKN018 06/05 Q1001

TAF COR TAF EPSC
Valid from the 20 at 00:00 until the 21 at 00:00 UTC


192358Z 2000/2024 01012KT 9999 SCT006 BKN008
TEMPO 2000/2005 4500 RA BR BKN004
PROB40
TEMPO 2000/2005 03020G31KT -SHRASN BKN010TCU
BECMG 2006/2008 SCT030
TEMPO 2006/2014 01018G28KT BKN025TCU
BECMG 2017/2019 VRB02KT



MET'MAP, your aeronautical weather chart ! - Copyright ORBIFLY December 2007 - Disclaimer

ORBIFLY MET'MAP TEAM :

Programming & Development : Alexandra Zaïnal
Original concept : Baudouin d'Aumeries
Technical & hardware support : Manuel Goepfert
Assistance : Marc-Olivier Méhu




SOURCES & CREDITS :

   NOAA